Proctorville, North Carolina
Current Conditions -  °F | °C
As of 8:54 AM on Thursday 23 Oct 2014 (Local Time) from KLBT Reporting Station
Clear Clear  
Wind Chill: 50°   Ceiling: Unl
Heat Index: 50°   Visibility: 10mi
Dew Point: 43°   Wind: 6mph
Humidity: 77%   Direction: 300°WNW
Pressure: 30.05"   Gusts: NA
Location:  34.48°N, 79.04°W
Report Text: KLBT 231254Z AUTO 30005KT 10SM CLR 10/06 A3005 RMK AO2 SLP176 T01000061
Loading
Personal Weather Stations






























Interactive Weather Map
Tropical Storm Tracking
New forecast layout! Learn more

10-Day Weather Forecast

Advertisements
Track Severe Weather on mobile